sensor_id;sensor_type;location;lat;lon;timestamp;pressure;altitude;pressure_sealevel;temperature;humidity
32873;BME280;19224;52.462;16.898;2023-03-01T00:00:33;101787.73;;;-0.12;100.00
32873;BME280;19224;52.462;16.898;2023-03-01T00:03:04;101784.97;;;-0.18;100.00
32873;BME280;19224;52.462;16.898;2023-03-01T00:05:35;101781.92;;;-0.16;100.00
32873;BME280;19224;52.462;16.898;2023-03-01T00:08:06;101786.29;;;-0.18;100.00
32873;BME280;19224;52.462;16.898;2023-03-01T00:10:36;101786.60;;;-0.23;100.00
32873;BME280;19224;52.462;16.898;2023-03-01T00:13:07;101784.02;;;-0.40;100.00
32873;BME280;19224;52.462;16.898;2023-03-01T00:15:41;101779.19;;;-0.39;100.00
32873;BME280;19224;52.462;16.898;2023-03-01T00:18:13;101781.90;;;-0.36;100.00
32873;BME280;19224;52.462;16.898;2023-03-01T00:20:57;101774.41;;;-0.36;100.00
32873;BME280;19224;52.462;16.898;2023-03-01T00:23:24;101780.58;;;-0.36;100.00
32873;BME280;19224;52.462;16.898;2023-03-01T00:25:55;101772.58;;;-0.39;100.00
32873;BME280;19224;52.462;16.898;2023-03-01T00:28:26;101772.63;;;-0.37;100.00
32873;BME280;19224;52.462;16.898;2023-03-01T00:30:56;101767.34;;;-0.36;100.00
32873;BME280;19224;52.462;16.898;2023-03-01T00:33:28;101765.67;;;-0.32;100.00
32873;BME280;19224;52.462;16.898;2023-03-01T00:36:00;101776.61;;;-0.36;100.00
32873;BME280;19224;52.462;16.898;2023-03-01T00:38:33;101766.83;;;-0.40;100.00
32873;BME280;19224;52.462;16.898;2023-03-01T00:41:09;101764.03;;;-0.46;100.00
32873;BME280;19224;52.462;16.898;2023-03-01T00:43:40;101766.15;;;-0.50;100.00
32873;BME280;19224;52.462;16.898;2023-03-01T00:46:15;101762.94;;;-0.55;100.00
32873;BME280;19224;52.462;16.898;2023-03-01T00:48:47;101757.48;;;-0.61;100.00
32873;BME280;19224;52.462;16.898;2023-03-01T00:51:27;101754.37;;;-0.64;100.00
32873;BME280;19224;52.462;16.898;2023-03-01T00:53:57;101753.86;;;-0.66;100.00
32873;BME280;19224;52.462;16.898;2023-03-01T00:56:31;101752.13;;;-0.66;100.00
32873;BME280;19224;52.462;16.898;2023-03-01T00:59:02;101743.80;;;-0.62;100.00
32873;BME280;19224;52.462;16.898;2023-03-01T01:01:32;101747.70;;;-0.65;100.00
32873;BME280;19224;52.462;16.898;2023-03-01T01:04:10;101743.23;;;-0.68;100.00
32873;BME280;19224;52.462;16.898;2023-03-01T01:06:44;101744.03;;;-0.72;100.00
32873;BME280;19224;52.462;16.898;2023-03-01T01:09:17;101740.97;;;-0.71;100.00
32873;BME280;19224;52.462;16.898;2023-03-01T01:11:50;101737.06;;;-0.68;100.00
32873;BME280;19224;52.462;16.898;2023-03-01T01:14:21;101731.73;;;-0.70;100.00
32873;BME280;19224;52.462;16.898;2023-03-01T01:16:52;101737.00;;;-0.71;100.00
32873;BME280;19224;52.462;16.898;2023-03-01T01:19:24;101737.36;;;-0.75;100.00
32873;BME280;19224;52.462;16.898;2023-03-01T01:21:55;101742.08;;;-0.79;100.00
32873;BME280;19224;52.462;16.898;2023-03-01T01:24:25;101740.77;;;-0.79;100.00
32873;BME280;19224;52.462;16.898;2023-03-01T01:26:56;101738.34;;;-0.88;100.00
32873;BME280;19224;52.462;16.898;2023-03-01T01:29:26;101737.55;;;-0.84;100.00
32873;BME280;19224;52.462;16.898;2023-03-01T01:31:57;101740.17;;;-0.86;100.00
32873;BME280;19224;52.462;16.898;2023-03-01T01:34:28;101739.83;;;-0.82;100.00
32873;BME280;19224;52.462;16.898;2023-03-01T01:36:58;101735.41;;;-0.82;100.00
32873;BME280;19224;52.462;16.898;2023-03-01T01:39:31;101740.70;;;-0.82;100.00
32873;BME280;19224;52.462;16.898;2023-03-01T01:42:02;101738.05;;;-0.82;100.00
32873;BME280;19224;52.462;16.898;2023-03-01T01:44:34;101737.99;;;-0.85;100.00
32873;BME280;19224;52.462;16.898;2023-03-01T01:47:16;101738.30;;;-0.90;100.00
32873;BME280;19224;52.462;16.898;2023-03-01T01:49:47;101729.59;;;-0.86;100.00
32873;BME280;19224;52.462;16.898;2023-03-01T01:52:31;101732.88;;;-0.77;100.00
32873;BME280;19224;52.462;16.898;2023-03-01T01:55:12;101721.55;;;-0.72;100.00
32873;BME280;19224;52.462;16.898;2023-03-01T01:57:54;101716.72;;;-0.71;100.00
32873;BME280;19224;52.462;16.898;2023-03-01T02:00:28;101718.05;;;-0.71;100.00
32873;BME280;19224;52.462;16.898;2023-03-01T02:03:13;101720.33;;;-0.67;100.00
32873;BME280;19224;52.462;16.898;2023-03-01T02:06:28;101707.91;;;-0.71;100.00
32873;BME280;19224;52.462;16.898;2023-03-01T02:09:05;101707.25;;;-0.80;100.00
32873;BME280;19224;52.462;16.898;2023-03-01T02:11:36;101711.27;;;-0.78;100.00
32873;BME280;19224;52.462;16.898;2023-03-01T02:14:07;101695.91;;;-0.74;100.00
32873;BME280;19224;52.462;16.898;2023-03-01T02:16:38;101685.78;;;-0.75;100.00
32873;BME280;19224;52.462;16.898;2023-03-01T02:19:15;101673.88;;;-0.75;100.00
32873;BME280;19224;52.462;16.898;2023-03-01T02:22:48;101673.42;;;-0.76;100.00
32873;BME280;19224;52.462;16.898;2023-03-01T02:25:05;101670.69;;;-0.79;100.00
32873;BME280;19224;52.462;16.898;2023-03-01T02:27:12;101671.03;;;-0.84;100.00
32873;BME280;19224;52.462;16.898;2023-03-01T02:29:42;101671.43;;;-0.86;100.00
32873;BME280;19224;52.462;16.898;2023-03-01T02:32:14;101665.06;;;-0.94;100.00
32873;BME280;19224;52.462;16.898;2023-03-01T02:34:45;101670.75;;;-0.96;100.00
32873;BME280;19224;52.462;16.898;2023-03-01T02:37:17;101674.20;;;-1.00;100.00
32873;BME280;19224;52.462;16.898;2023-03-01T02:39:58;101670.58;;;-1.03;100.00
32873;BME280;19224;52.462;16.898;2023-03-01T02:42:36;101665.53;;;-1.11;100.00
32873;BME280;19224;52.462;16.898;2023-03-01T02:45:07;101667.25;;;-1.13;100.00
32873;BME280;19224;52.462;16.898;2023-03-01T02:47:39;101667.60;;;-1.17;100.00
32873;BME280;19224;52.462;16.898;2023-03-01T02:53:10;101658.13;;;-1.26;100.00
32873;BME280;19224;52.462;16.898;2023-03-01T02:55:40;101654.73;;;-1.39;100.00
32873;BME280;19224;52.462;16.898;2023-03-01T02:58:11;101660.36;;;-1.42;100.00
32873;BME280;19224;52.462;16.898;2023-03-01T03:00:43;101661.03;;;-1.51;100.00
32873;BME280;19224;52.462;16.898;2023-03-01T03:03:19;101658.62;;;-1.42;100.00
32873;BME280;19224;52.462;16.898;2023-03-01T03:05:50;101659.84;;;-1.45;100.00
32873;BME280;19224;52.462;16.898;2023-03-01T03:08:20;101660.02;;;-1.39;100.00
32873;BME280;19224;52.462;16.898;2023-03-01T03:10:52;101665.02;;;-1.32;100.00
32873;BME280;19224;52.462;16.898;2023-03-01T03:13:23;101660.54;;;-1.35;100.00
32873;BME280;19224;52.462;16.898;2023-03-01T03:15:57;101661.40;;;-1.36;100.00
32873;BME280;19224;52.462;16.898;2023-03-01T03:18:28;101659.62;;;-1.37;100.00
32873;BME280;19224;52.462;16.898;2023-03-01T03:20:58;101662.24;;;-1.38;100.00
32873;BME280;19224;52.462;16.898;2023-03-01T03:23:29;101658.17;;;-1.41;100.00
32873;BME280;19224;52.462;16.898;2023-03-01T03:26:00;101655.13;;;-1.41;100.00
32873;BME280;19224;52.462;16.898;2023-03-01T03:28:34;101648.59;;;-1.38;100.00
32873;BME280;19224;52.462;16.898;2023-03-01T03:31:08;101649.05;;;-1.37;100.00
32873;BME280;19224;52.462;16.898;2023-03-01T03:33:39;101647.80;;;-1.34;100.00
32873;BME280;19224;52.462;16.898;2023-03-01T03:36:14;101646.06;;;-1.33;100.00
32873;BME280;19224;52.462;16.898;2023-03-01T03:38:42;101651.73;;;-1.35;100.00
32873;BME280;19224;52.462;16.898;2023-03-01T03:41:14;101660.94;;;-1.37;100.00
32873;BME280;19224;52.462;16.898;2023-03-01T03:43:45;101651.23;;;-1.38;100.00
32873;BME280;19224;52.462;16.898;2023-03-01T03:46:18;101654.43;;;-1.51;100.00
32873;BME280;19224;52.462;16.898;2023-03-01T03:48:48;101649.48;;;-1.54;100.00
32873;BME280;19224;52.462;16.898;2023-03-01T03:51:19;101648.63;;;-1.53;100.00
32873;BME280;19224;52.462;16.898;2023-03-01T03:53:51;101649.72;;;-1.45;100.00
32873;BME280;19224;52.462;16.898;2023-03-01T03:56:22;101642.77;;;-1.42;100.00
32873;BME280;19224;52.462;16.898;2023-03-01T03:58:54;101639.41;;;-1.35;100.00
32873;BME280;19224;52.462;16.898;2023-03-01T04:01:24;101633.87;;;-1.45;100.00
32873;BME280;19224;52.462;16.898;2023-03-01T04:03:55;101634.29;;;-1.46;100.00
32873;BME280;19224;52.462;16.898;2023-03-01T04:06:27;101638.41;;;-1.40;100.00
32873;BME280;19224;52.462;16.898;2023-03-01T04:08:58;101633.36;;;-1.48;100.00
32873;BME280;19224;52.462;16.898;2023-03-01T04:11:30;101642.38;;;-1.40;100.00
32873;BME280;19224;52.462;16.898;2023-03-01T04:14:00;101635.55;;;-1.32;100.00
32873;BME280;19224;52.462;16.898;2023-03-01T04:16:32;101638.99;;;-1.34;100.00
32873;BME280;19224;52.462;16.898;2023-03-01T04:19:03;101643.81;;;-1.35;100.00
32873;BME280;19224;52.462;16.898;2023-03-01T04:21:35;101636.70;;;-1.38;100.00
32873;BME280;19224;52.462;16.898;2023-03-01T04:24:06;101643.30;;;-1.38;100.00
32873;BME280;19224;52.462;16.898;2023-03-01T04:26:38;101643.87;;;-1.32;100.00
32873;BME280;19224;52.462;16.898;2023-03-01T04:29:09;101639.41;;;-1.35;100.00
32873;BME280;19224;52.462;16.898;2023-03-01T04:31:39;101638.55;;;-1.34;100.00
32873;BME280;19224;52.462;16.898;2023-03-01T04:34:10;101639.45;;;-1.33;100.00
32873;BME280;19224;52.462;16.898;2023-03-01T04:36:40;101636.30;;;-1.36;100.00
32873;BME280;19224;52.462;16.898;2023-03-01T04:39:11;101642.51;;;-1.34;100.00
32873;BME280;19224;52.462;16.898;2023-03-01T04:41:44;101636.77;;;-1.35;100.00
32873;BME280;19224;52.462;16.898;2023-03-01T04:44:15;101636.81;;;-1.33;100.00
32873;BME280;19224;52.462;16.898;2023-03-01T04:46:48;101640.83;;;-1.32;100.00
32873;BME280;19224;52.462;16.898;2023-03-01T04:49:17;101640.66;;;-1.38;100.00
32873;BME280;19224;52.462;16.898;2023-03-01T04:51:48;101636.57;;;-1.44;100.00
32873;BME280;19224;52.462;16.898;2023-03-01T04:54:18;101643.11;;;-1.62;100.00
32873;BME280;19224;52.462;16.898;2023-03-01T04:56:49;101630.08;;;-1.56;100.00
32873;BME280;19224;52.462;16.898;2023-03-01T04:59:20;101627.32;;;-1.61;100.00
32873;BME280;19224;52.462;16.898;2023-03-01T05:01:53;101630.95;;;-1.56;100.00
32873;BME280;19224;52.462;16.898;2023-03-01T05:04:26;101626.70;;;-1.51;100.00
32873;BME280;19224;52.462;16.898;2023-03-01T05:06:57;101628.41;;;-1.53;100.00
32873;BME280;19224;52.462;16.898;2023-03-01T05:09:28;101633.43;;;-1.45;100.00
32873;BME280;19224;52.462;16.898;2023-03-01T05:11:58;101632.61;;;-1.44;100.00
32873;BME280;19224;52.462;16.898;2023-03-01T05:14:32;101632.61;;;-1.44;100.00
32873;BME280;19224;52.462;16.898;2023-03-01T05:17:02;101627.80;;;-1.41;100.00
32873;BME280;19224;52.462;16.898;2023-03-01T05:19:33;101632.61;;;-1.44;100.00
32873;BME280;19224;52.462;16.898;2023-03-01T05:22:04;101633.06;;;-1.43;100.00
32873;BME280;19224;52.462;16.898;2023-03-01T05:24:36;101638.35;;;-1.43;100.00
32873;BME280;19224;52.462;16.898;2023-03-01T05:27:08;101633.71;;;-1.51;100.00
32873;BME280;19224;52.462;16.898;2023-03-01T05:29:39;101638.52;;;-1.54;100.00
32873;BME280;19224;52.462;16.898;2023-03-01T05:32:09;101637.48;;;-1.59;100.00
32873;BME280;19224;52.462;16.898;2023-03-01T05:34:42;101636.22;;;-1.57;100.00
32873;BME280;19224;52.462;16.898;2023-03-01T05:37:15;101637.02;;;-1.60;100.00
32873;BME280;19224;52.462;16.898;2023-03-01T05:39:46;101637.48;;;-1.59;100.00
32873;BME280;19224;52.462;16.898;2023-03-01T05:42:18;101635.91;;;-1.69;100.00
32873;BME280;19224;52.462;16.898;2023-03-01T05:44:49;101634.25;;;-1.66;100.00
32873;BME280;19224;52.462;16.898;2023-03-01T05:47:19;101642.05;;;-1.70;100.00
32873;BME280;19224;52.462;16.898;2023-03-01T05:49:50;101639.89;;;-1.68;100.00
32873;BME280;19224;52.462;16.898;2023-03-01T05:52:21;101641.84;;;-1.61;100.00
32873;BME280;19224;52.462;16.898;2023-03-01T05:54:51;101636.34;;;-1.53;100.00
32873;BME280;19224;52.462;16.898;2023-03-01T05:57:22;101640.83;;;-1.49;100.00
32873;BME280;19224;52.462;16.898;2023-03-01T05:59:52;101636.45;;;-1.48;100.00
32873;BME280;19224;52.462;16.898;2023-03-01T06:02:22;101635.61;;;-1.46;100.00
32873;BME280;19224;52.462;16.898;2023-03-01T06:04:53;101634.39;;;-1.43;100.00
32873;BME280;19224;52.462;16.898;2023-03-01T06:07:24;101630.61;;;-1.35;100.00
32873;BME280;19224;52.462;16.898;2023-03-01T06:09:54;101623.25;;;-1.30;100.00
32873;BME280;19224;52.462;16.898;2023-03-01T06:12:25;101629.00;;;-1.29;100.00
32873;BME280;19224;52.462;16.898;2023-03-01T06:14:55;101622.80;;;-1.29;100.00
32873;BME280;19224;52.462;16.898;2023-03-01T06:17:30;101627.39;;;-1.22;100.00
32873;BME280;19224;52.462;16.898;2023-03-01T06:20:01;101625.31;;;-1.17;100.00
32873;BME280;19224;52.462;16.898;2023-03-01T06:22:32;101626.69;;;-1.15;100.00
32873;BME280;19224;52.462;16.898;2023-03-01T06:25:03;101626.70;;;-1.14;100.00
32873;BME280;19224;52.462;16.898;2023-03-01T06:27:35;101628.47;;;-1.14;100.00
32873;BME280;19224;52.462;16.898;2023-03-01T06:30:07;101628.58;;;-1.10;100.00
32873;BME280;19224;52.462;16.898;2023-03-01T06:32:40;101623.48;;;-1.01;100.00
32873;BME280;19224;52.462;16.898;2023-03-01T06:35:16;101616.62;;;-0.93;100.00
32873;BME280;19224;52.462;16.898;2023-03-01T06:37:49;101625.10;;;-0.89;100.00
32873;BME280;19224;52.462;16.898;2023-03-01T06:40:21;101626.02;;;-0.87;100.00
32873;BME280;19224;52.462;16.898;2023-03-01T06:42:52;101624.80;;;-0.82;100.00
32873;BME280;19224;52.462;16.898;2023-03-01T06:45:22;101627.52;;;-0.78;100.00
32873;BME280;19224;52.462;16.898;2023-03-01T06:48:05;101622.52;;;-0.86;100.00
32873;BME280;19224;52.462;16.898;2023-03-01T06:50:27;101626.78;;;-0.92;100.00
32873;BME280;19224;52.462;16.898;2023-03-01T06:52:58;101624.61;;;-0.90;100.00
32873;BME280;19224;52.462;16.898;2023-03-01T06:55:30;101625.16;;;-0.86;100.00
32873;BME280;19224;52.462;16.898;2023-03-01T06:58:02;101623.78;;;-0.89;100.00
32873;BME280;19224;52.462;16.898;2023-03-01T07:00:33;101627.05;;;-0.80;100.00
32873;BME280;19224;52.462;16.898;2023-03-01T07:03:04;101618.31;;;-0.76;100.00
32873;BME280;19224;52.462;16.898;2023-03-01T07:05:34;101617.95;;;-0.73;100.00
32873;BME280;19224;52.462;16.898;2023-03-01T07:08:05;101614.44;;;-0.72;100.00
32873;BME280;19224;52.462;16.898;2023-03-01T07:10:35;101620.39;;;-0.62;100.00
32873;BME280;19224;52.462;16.898;2023-03-01T07:13:06;101627.41;;;-0.64;100.00
32873;BME280;19224;52.462;16.898;2023-03-01T07:15:39;101629.55;;;-0.66;100.00
32873;BME280;19224;52.462;16.898;2023-03-01T07:18:09;101635.34;;;-0.64;100.00
32873;BME280;19224;52.462;16.898;2023-03-01T07:20:40;101633.27;;;-0.57;100.00
32873;BME280;19224;52.462;16.898;2023-03-01T07:23:10;101637.48;;;-0.45;100.00
32873;BME280;19224;52.462;16.898;2023-03-01T07:25:41;101641.40;;;-0.48;100.00
32873;BME280;19224;52.462;16.898;2023-03-01T07:28:11;101633.75;;;-0.34;100.00
32873;BME280;19224;52.462;16.898;2023-03-01T07:30:42;101632.12;;;-0.28;100.00
32873;BME280;19224;52.462;16.898;2023-03-01T07:33:13;101627.92;;;-0.17;100.00
32873;BME280;19224;52.462;16.898;2023-03-01T07:35:44;101632.99;;;-0.06;100.00
32873;BME280;19224;52.462;16.898;2023-03-01T07:38:15;101635.50;;;0.11;100.00
32873;BME280;19224;52.462;16.898;2023-03-01T07:40:45;101631.92;;;0.32;100.00
32873;BME280;19224;52.462;16.898;2023-03-01T07:43:16;101619.38;;;0.45;100.00
32873;BME280;19224;52.462;16.898;2023-03-01T07:45:47;101628.97;;;0.66;100.00
32873;BME280;19224;52.462;16.898;2023-03-01T07:48:17;101626.84;;;0.70;100.00
32873;BME280;19224;52.462;16.898;2023-03-01T07:50:48;101637.15;;;0.79;100.00
32873;BME280;19224;52.462;16.898;2023-03-01T07:53:18;101636.91;;;0.92;100.00
32873;BME280;19224;52.462;16.898;2023-03-01T07:55:50;101635.77;;;1.04;100.00
32873;BME280;19224;52.462;16.898;2023-03-01T07:58:20;101637.76;;;1.20;100.00
32873;BME280;19224;52.462;16.898;2023-03-01T08:00:51;101638.34;;;1.28;100.00
32873;BME280;19224;52.462;16.898;2023-03-01T08:03:21;101631.52;;;1.48;100.00
32873;BME280;19224;52.462;16.898;2023-03-01T08:05:52;101634.77;;;1.60;100.00
32873;BME280;19224;52.462;16.898;2023-03-01T08:08:22;101629.13;;;1.68;99.06
32873;BME280;19224;52.462;16.898;2023-03-01T08:10:56;101627.06;;;1.82;98.08
32873;BME280;19224;52.462;16.898;2023-03-01T08:13:25;101631.59;;;1.89;94.89
32873;BME280;19224;52.462;16.898;2023-03-01T08:16:03;101631.34;;;2.08;95.08
32873;BME280;19224;52.462;16.898;2023-03-01T08:18:33;101634.95;;;2.14;93.30
32873;BME280;19224;52.462;16.898;2023-03-01T08:21:09;101624.39;;;2.22;91.44
32873;BME280;19224;52.462;16.898;2023-03-01T08:23:40;101623.17;;;2.29;89.73
32873;BME280;19224;52.462;16.898;2023-03-01T08:26:18;101625.84;;;2.32;89.90
32873;BME280;19224;52.462;16.898;2023-03-01T08:28:50;101617.94;;;2.39;89.82
32873;BME280;19224;52.462;16.898;2023-03-01T08:31:24;101614.07;;;2.54;90.26
32873;BME280;19224;52.462;16.898;2023-03-01T08:33:58;101614.99;;;2.58;88.50
32873;BME280;19224;52.462;16.898;2023-03-01T08:36:34;101616.37;;;2.65;87.72
32873;BME280;19224;52.462;16.898;2023-03-01T08:39:06;101616.83;;;2.66;87.93
32873;BME280;19224;52.462;16.898;2023-03-01T08:41:37;101613.88;;;2.83;88.05
32873;BME280;19224;52.462;16.898;2023-03-01T08:44:09;101609.02;;;2.87;87.48
32873;BME280;19224;52.462;16.898;2023-03-01T08:46:42;101606.42;;;2.96;89.00
32873;BME280;19224;52.462;16.898;2023-03-01T08:49:21;101607.41;;;3.09;90.00
32873;BME280;19224;52.462;16.898;2023-03-01T08:51:48;101598.63;;;3.26;88.95
32873;BME280;19224;52.462;16.898;2023-03-01T08:54:21;101599.97;;;3.32;88.41
32873;BME280;19224;52.462;16.898;2023-03-01T08:56:52;101598.70;;;3.41;88.61
32873;BME280;19224;52.462;16.898;2023-03-01T08:59:23;101603.18;;;3.51;88.36
32873;BME280;19224;52.462;16.898;2023-03-01T09:01:56;101604.96;;;3.52;86.63
32873;BME280;19224;52.462;16.898;2023-03-01T09:04:26;101599.19;;;3.48;86.41
32873;BME280;19224;52.462;16.898;2023-03-01T09:06:56;101597.84;;;3.45;86.46
32873;BME280;19224;52.462;16.898;2023-03-01T09:09:27;101598.32;;;3.54;86.83
32873;BME280;19224;52.462;16.898;2023-03-01T09:11:58;101593.91;;;3.60;86.52
32873;BME280;19224;52.462;16.898;2023-03-01T09:14:29;101585.05;;;3.69;87.46
32873;BME280;19224;52.462;16.898;2023-03-01T09:17:00;101581.96;;;3.75;87.57
32873;BME280;19224;52.462;16.898;2023-03-01T09:19:32;101582.86;;;3.82;87.16
32873;BME280;19224;52.462;16.898;2023-03-01T09:22:04;101578.88;;;3.83;87.71
32873;BME280;19224;52.462;16.898;2023-03-01T09:24:35;101581.12;;;3.84;85.41
32873;BME280;19224;52.462;16.898;2023-03-01T09:27:06;101592.22;;;3.85;85.11
32873;BME280;19224;52.462;16.898;2023-03-01T09:29:38;101588.25;;;4.00;83.94
32873;BME280;19224;52.462;16.898;2023-03-01T09:32:09;101589.58;;;4.03;83.66
32873;BME280;19224;52.462;16.898;2023-03-01T09:34:41;101593.63;;;4.13;83.21
32873;BME280;19224;52.462;16.898;2023-03-01T09:37:37;101590.05;;;4.13;83.27
32873;BME280;19224;52.462;16.898;2023-03-01T09:40:05;101588.28;;;4.16;83.51
32873;BME280;19224;52.462;16.898;2023-03-01T09:42:37;101585.65;;;4.30;82.51
32873;BME280;19224;52.462;16.898;2023-03-01T09:45:15;101583.85;;;4.30;83.09
32873;BME280;19224;52.462;16.898;2023-03-01T09:47:44;101585.20;;;4.39;82.24
32873;BME280;19224;52.462;16.898;2023-03-01T09:50:18;101576.32;;;4.42;82.41
32873;BME280;19224;52.462;16.898;2023-03-01T09:53:15;101581.64;;;4.40;83.03
32873;BME280;19224;52.462;16.898;2023-03-01T09:58:47;101578.97;;;4.52;82.50
32873;BME280;19224;52.462;16.898;2023-03-01T10:02:17;101584.31;;;4.70;81.67
32873;BME280;19224;52.462;16.898;2023-03-01T10:09:54;101583.42;;;4.71;82.41
32873;BME280;19224;52.462;16.898;2023-03-01T10:12:30;101573.20;;;4.78;82.87
32873;BME280;19224;52.462;16.898;2023-03-01T10:15:33;101580.28;;;4.89;82.77
32873;BME280;19224;52.462;16.898;2023-03-01T10:18:12;101578.03;;;4.98;83.00
32873;BME280;19224;52.462;16.898;2023-03-01T10:20:58;101573.14;;;5.11;82.88
32873;BME280;19224;52.462;16.898;2023-03-01T10:23:33;101580.70;;;5.13;81.65
32873;BME280;19224;52.462;16.898;2023-03-01T10:26:46;101574.47;;;5.05;81.75
32873;BME280;19224;52.462;16.898;2023-03-01T10:29:15;101573.13;;;5.14;82.57
32873;BME280;19224;52.462;16.898;2023-03-01T10:31:52;101572.61;;;5.31;82.42
32873;BME280;19224;52.462;16.898;2023-03-01T10:34:33;101571.29;;;5.34;81.73
32873;BME280;19224;52.462;16.898;2023-03-01T10:37:16;101562.86;;;5.22;82.52
32873;BME280;19224;52.462;16.898;2023-03-01T10:40:08;101557.93;;;5.32;82.96
32873;BME280;19224;52.462;16.898;2023-03-01T10:42:48;101564.58;;;5.40;86.80
32873;BME280;19224;52.462;16.898;2023-03-01T10:45:37;101551.28;;;5.25;83.11
32873;BME280;19224;52.462;16.898;2023-03-01T10:48:20;101552.98;;;5.47;83.26
32873;BME280;19224;52.462;16.898;2023-03-01T10:53:45;101544.03;;;5.57;83.57
32873;BME280;19224;52.462;16.898;2023-03-01T10:56:15;101544.84;;;5.71;82.38
32873;BME280;19224;52.462;16.898;2023-03-01T10:59:03;101539.03;;;5.71;82.11
32873;BME280;19224;52.462;16.898;2023-03-01T11:01:35;101538.56;;;5.84;81.79
32873;BME280;19224;52.462;16.898;2023-03-01T11:04:10;101522.95;;;5.85;81.25
32873;BME280;19224;52.462;16.898;2023-03-01T11:06:42;101523.80;;;5.91;81.66
32873;BME280;19224;52.462;16.898;2023-03-01T11:09:24;101529.97;;;6.04;81.75
32873;BME280;19224;52.462;16.898;2023-03-01T11:12:00;101520.11;;;6.12;80.69
32873;BME280;19224;52.462;16.898;2023-03-01T11:14:37;101528.14;;;6.12;80.27
32873;BME280;19224;52.462;16.898;2023-03-01T11:17:27;101526.80;;;6.10;80.81
32873;BME280;19224;52.462;16.898;2023-03-01T11:20:31;101523.20;;;6.17;80.55
32873;BME280;19224;52.462;16.898;2023-03-01T11:23:04;101524.13;;;6.12;80.57
32873;BME280;19224;52.462;16.898;2023-03-01T11:25:43;101520.11;;;6.12;80.38
32873;BME280;19224;52.462;16.898;2023-03-01T11:28:17;101509.42;;;6.12;80.83
32873;BME280;19224;52.462;16.898;2023-03-01T11:30:55;101510.28;;;6.11;81.25
32873;BME280;19224;52.462;16.898;2023-03-01T11:36:26;101514.23;;;6.20;82.01
32873;BME280;19224;52.462;16.898;2023-03-01T11:38:56;101505.38;;;6.15;81.99
32873;BME280;19224;52.462;16.898;2023-03-01T11:41:31;101504.44;;;6.20;82.52
32873;BME280;19224;52.462;16.898;2023-03-01T11:44:23;101510.12;;;6.32;82.44
32873;BME280;19224;52.462;16.898;2023-03-01T11:47:08;101511.42;;;6.38;81.73
32873;BME280;19224;52.462;16.898;2023-03-01T11:50:14;101497.14;;;6.39;81.83
32873;BME280;19224;52.462;16.898;2023-03-01T11:53:13;101495.80;;;6.37;81.98
32873;BME280;19224;52.462;16.898;2023-03-01T11:55:54;101494.14;;;6.26;81.84
32873;BME280;19224;52.462;16.898;2023-03-01T12:01:45;101482.94;;;6.32;82.57
32873;BME280;19224;52.462;16.898;2023-03-01T12:04:44;101492.30;;;6.34;82.49
32873;BME280;19224;52.462;16.898;2023-03-01T12:22:24;101463.41;;;6.66;81.78
32873;BME280;19224;52.462;16.898;2023-03-01T12:25:13;101456.71;;;6.69;82.14
32873;BME280;19224;52.462;16.898;2023-03-01T12:30:57;101449.45;;;6.80;81.87
32873;BME280;19224;52.462;16.898;2023-03-01T12:33:53;101447.25;;;6.76;81.54
32873;BME280;19224;52.462;16.898;2023-03-01T12:36:57;101435.20;;;6.78;81.45
32873;BME280;19224;52.462;16.898;2023-03-01T12:51:24;101432.77;;;6.92;82.16
32873;BME280;19224;52.462;16.898;2023-03-01T12:53:57;101439.50;;;6.91;81.57
32873;BME280;19224;52.462;16.898;2023-03-01T12:56:31;101436.35;;;6.93;81.91
32873;BME280;19224;52.462;16.898;2023-03-01T12:59:19;101436.25;;;7.02;81.71
32873;BME280;19224;52.462;16.898;2023-03-01T13:07:30;101431.16;;;7.14;80.53
32873;BME280;19224;52.462;16.898;2023-03-01T13:10:41;101435.72;;;7.06;80.45
32873;BME280;19224;52.462;16.898;2023-03-01T13:13:21;101429.40;;;7.12;79.65
32873;BME280;19224;52.462;16.898;2023-03-01T13:15:52;101428.00;;;7.16;79.70
32873;BME280;19224;52.462;16.898;2023-03-01T13:18:27;101414.60;;;7.18;79.44
32873;BME280;19224;52.462;16.898;2023-03-01T13:21:00;101405.59;;;7.23;79.50
32873;BME280;19224;52.462;16.898;2023-03-01T13:23:36;101399.95;;;7.41;79.07
32873;BME280;19224;52.462;16.898;2023-03-01T13:26:16;101397.93;;;7.58;79.14
32873;BME280;19224;52.462;16.898;2023-03-01T13:29:00;101399.51;;;7.71;78.31
32873;BME280;19224;52.462;16.898;2023-03-01T13:34:10;101390.97;;;8.01;76.23
32873;BME280;19224;52.462;16.898;2023-03-01T13:36:45;101390.98;;;8.00;76.46
32873;BME280;19224;52.462;16.898;2023-03-01T13:39:38;101390.67;;;8.19;75.52
32873;BME280;19224;52.462;16.898;2023-03-01T13:42:01;101382.52;;;8.25;74.79
32873;BME280;19224;52.462;16.898;2023-03-01T13:44:37;101383.13;;;8.41;74.49
32873;BME280;19224;52.462;16.898;2023-03-01T13:50:01;101381.30;;;8.43;73.10
32873;BME280;19224;52.462;16.898;2023-03-01T13:52:36;101380.16;;;8.54;72.87
32873;BME280;19224;52.462;16.898;2023-03-01T13:55:17;101381.82;;;8.61;73.24
32873;BME280;19224;52.462;16.898;2023-03-01T13:57:54;101383.23;;;8.80;71.95
32873;BME280;19224;52.462;16.898;2023-03-01T14:00:30;101382.89;;;8.97;70.59
32873;BME280;19224;52.462;16.898;2023-03-01T14:03:17;101385.17;;;8.94;70.42
32873;BME280;19224;52.462;16.898;2023-03-01T14:08:39;101388.87;;;9.09;70.17
32873;BME280;19224;52.462;16.898;2023-03-01T14:17:26;101375.43;;;9.09;68.41
32873;BME280;19224;52.462;16.898;2023-03-01T14:20:09;101371.45;;;9.27;69.52
32873;BME280;19224;52.462;16.898;2023-03-01T14:22:35;101366.05;;;9.28;68.62
32873;BME280;19224;52.462;16.898;2023-03-01T14:25:23;101359.39;;;9.63;69.04